sensor_id;sensor_type;location;lat;lon;timestamp;P1;durP1;ratioP1;P2;durP2;ratioP2
52554;SDS011;38455;52.710;6.502;2023-05-09T00:00:50;81.60;;;40.70;;
52554;SDS011;38455;52.710;6.502;2023-05-09T00:03:15;83.68;;;39.97;;
52554;SDS011;38455;52.710;6.502;2023-05-09T00:05:41;82.50;;;42.80;;
52554;SDS011;38455;52.710;6.502;2023-05-09T00:08:07;84.47;;;42.10;;
52554;SDS011;38455;52.710;6.502;2023-05-09T00:10:33;76.13;;;39.28;;
52554;SDS011;38455;52.710;6.502;2023-05-09T00:12:59;72.13;;;38.88;;
52554;SDS011;38455;52.710;6.502;2023-05-09T00:15:25;83.45;;;41.95;;
52554;SDS011;38455;52.710;6.502;2023-05-09T00:17:50;76.05;;;39.70;;
52554;SDS011;38455;52.710;6.502;2023-05-09T00:20:17;73.05;;;39.58;;
52554;SDS011;38455;52.710;6.502;2023-05-09T00:22:42;75.75;;;40.30;;
52554;SDS011;38455;52.710;6.502;2023-05-09T00:25:08;74.13;;;36.75;;
52554;SDS011;38455;52.710;6.502;2023-05-09T00:27:35;77.15;;;39.25;;
52554;SDS011;38455;52.710;6.502;2023-05-09T00:30:02;95.40;;;43.45;;
52554;SDS011;38455;52.710;6.502;2023-05-09T00:32:28;78.35;;;40.00;;
52554;SDS011;38455;52.710;6.502;2023-05-09T00:34:54;74.85;;;35.97;;
52554;SDS011;38455;52.710;6.502;2023-05-09T00:37:20;78.35;;;38.95;;
52554;SDS011;38455;52.710;6.502;2023-05-09T00:39:46;69.45;;;36.10;;
52554;SDS011;38455;52.710;6.502;2023-05-09T00:42:12;72.68;;;38.58;;
52554;SDS011;38455;52.710;6.502;2023-05-09T00:44:38;73.50;;;34.85;;
52554;SDS011;38455;52.710;6.502;2023-05-09T00:47:04;69.20;;;35.92;;
52554;SDS011;38455;52.710;6.502;2023-05-09T00:49:31;66.35;;;34.88;;
52554;SDS011;38455;52.710;6.502;2023-05-09T00:51:57;79.82;;;36.92;;
52554;SDS011;38455;52.710;6.502;2023-05-09T00:54:23;82.03;;;38.92;;
52554;SDS011;38455;52.710;6.502;2023-05-09T00:56:50;74.20;;;37.03;;
52554;SDS011;38455;52.710;6.502;2023-05-09T00:59:16;72.70;;;36.38;;
52554;SDS011;38455;52.710;6.502;2023-05-09T01:01:43;71.97;;;35.88;;
52554;SDS011;38455;52.710;6.502;2023-05-09T01:04:10;64.22;;;34.70;;
52554;SDS011;38455;52.710;6.502;2023-05-09T01:06:44;66.28;;;35.92;;
52554;SDS011;38455;52.710;6.502;2023-05-09T01:09:59;63.65;;;36.17;;
52554;SDS011;38455;52.710;6.502;2023-05-09T01:23:11;73.00;;;35.33;;
52554;SDS011;38455;52.710;6.502;2023-05-09T01:25:48;63.40;;;34.08;;
52554;SDS011;38455;52.710;6.502;2023-05-09T01:31:30;69.63;;;36.15;;
52554;SDS011;38455;52.710;6.502;2023-05-09T01:33:58;68.18;;;35.33;;
52554;SDS011;38455;52.710;6.502;2023-05-09T01:36:26;77.53;;;36.10;;
52554;SDS011;38455;52.710;6.502;2023-05-09T01:38:57;68.80;;;35.15;;
52554;SDS011;38455;52.710;6.502;2023-05-09T01:41:26;75.97;;;35.97;;
52554;SDS011;38455;52.710;6.502;2023-05-09T01:43:55;70.47;;;35.25;;
52554;SDS011;38455;52.710;6.502;2023-05-09T01:46:23;82.57;;;37.75;;
52554;SDS011;38455;52.710;6.502;2023-05-09T01:48:50;82.47;;;39.25;;
52554;SDS011;38455;52.710;6.502;2023-05-09T01:51:17;81.72;;;37.53;;
52554;SDS011;38455;52.710;6.502;2023-05-09T01:53:44;71.30;;;35.80;;
52554;SDS011;38455;52.710;6.502;2023-05-09T01:56:12;85.45;;;36.35;;
52554;SDS011;38455;52.710;6.502;2023-05-09T01:58:40;73.10;;;36.42;;
52554;SDS011;38455;52.710;6.502;2023-05-09T02:01:07;68.93;;;33.88;;
52554;SDS011;38455;52.710;6.502;2023-05-09T02:03:34;83.22;;;36.53;;
52554;SDS011;38455;52.710;6.502;2023-05-09T02:06:02;64.00;;;32.53;;
52554;SDS011;38455;52.710;6.502;2023-05-09T02:08:28;77.93;;;36.58;;
52554;SDS011;38455;52.710;6.502;2023-05-09T02:10:55;71.22;;;36.08;;
52554;SDS011;38455;52.710;6.502;2023-05-09T02:13:21;79.57;;;39.10;;
52554;SDS011;38455;52.710;6.502;2023-05-09T02:15:47;79.93;;;35.85;;
52554;SDS011;38455;52.710;6.502;2023-05-09T02:18:13;64.10;;;33.10;;
52554;SDS011;38455;52.710;6.502;2023-05-09T02:20:40;75.32;;;37.42;;
52554;SDS011;38455;52.710;6.502;2023-05-09T02:23:06;59.63;;;30.52;;
52554;SDS011;38455;52.710;6.502;2023-05-09T02:25:32;56.45;;;28.80;;
52554;SDS011;38455;52.710;6.502;2023-05-09T02:27:58;71.35;;;33.90;;
52554;SDS011;38455;52.710;6.502;2023-05-09T02:30:25;62.97;;;31.73;;
52554;SDS011;38455;52.710;6.502;2023-05-09T02:32:59;78.40;;;35.25;;
52554;SDS011;38455;52.710;6.502;2023-05-09T02:35:29;87.55;;;37.75;;
52554;SDS011;38455;52.710;6.502;2023-05-09T02:37:56;84.75;;;39.03;;
52554;SDS011;38455;52.710;6.502;2023-05-09T02:40:23;86.90;;;38.63;;
52554;SDS011;38455;52.710;6.502;2023-05-09T02:42:51;76.65;;;37.55;;
52554;SDS011;38455;52.710;6.502;2023-05-09T02:45:17;71.05;;;32.60;;
52554;SDS011;38455;52.710;6.502;2023-05-09T02:47:42;61.58;;;30.13;;
52554;SDS011;38455;52.710;6.502;2023-05-09T02:50:08;85.63;;;33.78;;
52554;SDS011;38455;52.710;6.502;2023-05-09T02:52:34;68.72;;;32.35;;
52554;SDS011;38455;52.710;6.502;2023-05-09T02:54:59;71.13;;;33.20;;
52554;SDS011;38455;52.710;6.502;2023-05-09T02:57:25;76.35;;;33.33;;
52554;SDS011;38455;52.710;6.502;2023-05-09T02:59:51;80.38;;;33.13;;
52554;SDS011;38455;52.710;6.502;2023-05-09T03:02:17;83.30;;;36.38;;
52554;SDS011;38455;52.710;6.502;2023-05-09T03:04:43;73.78;;;34.20;;
52554;SDS011;38455;52.710;6.502;2023-05-09T03:07:08;74.72;;;35.50;;
52554;SDS011;38455;52.710;6.502;2023-05-09T03:09:34;71.25;;;35.55;;
52554;SDS011;38455;52.710;6.502;2023-05-09T03:12:00;84.13;;;38.78;;
52554;SDS011;38455;52.710;6.502;2023-05-09T03:14:26;79.68;;;39.92;;
52554;SDS011;38455;52.710;6.502;2023-05-09T03:16:51;72.93;;;36.95;;
52554;SDS011;38455;52.710;6.502;2023-05-09T03:19:17;87.53;;;39.38;;
52554;SDS011;38455;52.710;6.502;2023-05-09T03:21:42;84.25;;;38.72;;
52554;SDS011;38455;52.710;6.502;2023-05-09T03:24:08;79.70;;;37.17;;
52554;SDS011;38455;52.710;6.502;2023-05-09T03:26:34;73.88;;;36.42;;
52554;SDS011;38455;52.710;6.502;2023-05-09T03:29:00;68.32;;;35.53;;
52554;SDS011;38455;52.710;6.502;2023-05-09T03:31:26;85.57;;;39.65;;
52554;SDS011;38455;52.710;6.502;2023-05-09T03:33:52;109.70;;;44.58;;
52554;SDS011;38455;52.710;6.502;2023-05-09T03:36:18;109.82;;;43.47;;
52554;SDS011;38455;52.710;6.502;2023-05-09T03:38:44;144.68;;;51.50;;
52554;SDS011;38455;52.710;6.502;2023-05-09T03:41:10;147.80;;;53.70;;
52554;SDS011;38455;52.710;6.502;2023-05-09T03:43:37;191.30;;;62.40;;
52554;SDS011;38455;52.710;6.502;2023-05-09T03:46:02;170.95;;;62.28;;
52554;SDS011;38455;52.710;6.502;2023-05-09T03:48:28;153.20;;;58.83;;
52554;SDS011;38455;52.710;6.502;2023-05-09T03:50:54;126.95;;;51.25;;
52554;SDS011;38455;52.710;6.502;2023-05-09T03:53:20;119.22;;;47.83;;
52554;SDS011;38455;52.710;6.502;2023-05-09T03:55:45;228.15;;;60.10;;
52554;SDS011;38455;52.710;6.502;2023-05-09T03:58:11;173.10;;;52.40;;
52554;SDS011;38455;52.710;6.502;2023-05-09T04:00:37;201.00;;;55.00;;
52554;SDS011;38455;52.710;6.502;2023-05-09T04:03:03;150.13;;;52.55;;
52554;SDS011;38455;52.710;6.502;2023-05-09T04:05:28;235.30;;;60.90;;
52554;SDS011;38455;52.710;6.502;2023-05-09T04:07:54;169.40;;;53.55;;
52554;SDS011;38455;52.710;6.502;2023-05-09T04:10:20;156.38;;;54.65;;
52554;SDS011;38455;52.710;6.502;2023-05-09T04:12:46;154.65;;;55.17;;
52554;SDS011;38455;52.710;6.502;2023-05-09T04:15:11;164.52;;;56.72;;
52554;SDS011;38455;52.710;6.502;2023-05-09T04:17:37;212.20;;;61.85;;
52554;SDS011;38455;52.710;6.502;2023-05-09T04:20:02;175.68;;;58.85;;
52554;SDS011;38455;52.710;6.502;2023-05-09T04:22:29;267.40;;;68.55;;
52554;SDS011;38455;52.710;6.502;2023-05-09T04:24:55;416.42;;;70.82;;
52554;SDS011;38455;52.710;6.502;2023-05-09T04:27:21;174.48;;;61.25;;
52554;SDS011;38455;52.710;6.502;2023-05-09T04:29:47;612.72;;;83.93;;
52554;SDS011;38455;52.710;6.502;2023-05-09T04:32:13;267.42;;;62.80;;
52554;SDS011;38455;52.710;6.502;2023-05-09T04:34:39;657.72;;;95.07;;
52554;SDS011;38455;52.710;6.502;2023-05-09T04:37:05;314.40;;;68.85;;
52554;SDS011;38455;52.710;6.502;2023-05-09T04:39:30;272.67;;;64.10;;
52554;SDS011;38455;52.710;6.502;2023-05-09T04:41:56;167.10;;;59.45;;
52554;SDS011;38455;52.710;6.502;2023-05-09T04:44:22;170.32;;;60.78;;
52554;SDS011;38455;52.710;6.502;2023-05-09T04:46:48;175.55;;;64.18;;
52554;SDS011;38455;52.710;6.502;2023-05-09T04:49:15;145.23;;;59.38;;
52554;SDS011;38455;52.710;6.502;2023-05-09T04:51:40;151.52;;;59.30;;
52554;SDS011;38455;52.710;6.502;2023-05-09T04:54:06;151.23;;;62.53;;
52554;SDS011;38455;52.710;6.502;2023-05-09T04:56:31;144.00;;;60.38;;
52554;SDS011;38455;52.710;6.502;2023-05-09T04:58:57;195.48;;;65.43;;
52554;SDS011;38455;52.710;6.502;2023-05-09T05:01:23;187.63;;;64.55;;
52554;SDS011;38455;52.710;6.502;2023-05-09T05:03:48;151.98;;;64.25;;
52554;SDS011;38455;52.710;6.502;2023-05-09T05:06:14;160.70;;;63.72;;
52554;SDS011;38455;52.710;6.502;2023-05-09T05:08:40;133.27;;;58.97;;
52554;SDS011;38455;52.710;6.502;2023-05-09T05:11:05;145.23;;;61.45;;
52554;SDS011;38455;52.710;6.502;2023-05-09T05:13:31;138.80;;;62.30;;
52554;SDS011;38455;52.710;6.502;2023-05-09T05:15:56;117.95;;;57.83;;
52554;SDS011;38455;52.710;6.502;2023-05-09T05:18:22;124.57;;;58.85;;
52554;SDS011;38455;52.710;6.502;2023-05-09T05:20:48;114.78;;;56.05;;
52554;SDS011;38455;52.710;6.502;2023-05-09T05:23:14;132.40;;;57.63;;
52554;SDS011;38455;52.710;6.502;2023-05-09T05:25:39;111.53;;;54.22;;
52554;SDS011;38455;52.710;6.502;2023-05-09T05:28:05;95.13;;;49.78;;
52554;SDS011;38455;52.710;6.502;2023-05-09T05:30:31;113.40;;;53.95;;
52554;SDS011;38455;52.710;6.502;2023-05-09T05:32:57;92.85;;;47.88;;
52554;SDS011;38455;52.710;6.502;2023-05-09T05:35:22;98.65;;;48.17;;
52554;SDS011;38455;52.710;6.502;2023-05-09T05:37:48;92.63;;;49.33;;
52554;SDS011;38455;52.710;6.502;2023-05-09T05:40:14;86.50;;;45.08;;
52554;SDS011;38455;52.710;6.502;2023-05-09T05:42:40;89.53;;;45.97;;
52554;SDS011;38455;52.710;6.502;2023-05-09T05:45:06;81.03;;;44.80;;
52554;SDS011;38455;52.710;6.502;2023-05-09T05:47:32;79.85;;;44.58;;
52554;SDS011;38455;52.710;6.502;2023-05-09T05:49:59;93.88;;;47.30;;
52554;SDS011;38455;52.710;6.502;2023-05-09T05:52:25;87.25;;;44.45;;
52554;SDS011;38455;52.710;6.502;2023-05-09T05:54:51;89.88;;;45.63;;
52554;SDS011;38455;52.710;6.502;2023-05-09T05:57:18;80.90;;;42.05;;
52554;SDS011;38455;52.710;6.502;2023-05-09T05:59:45;68.25;;;39.30;;
52554;SDS011;38455;52.710;6.502;2023-05-09T06:02:12;70.63;;;40.92;;
52554;SDS011;38455;52.710;6.502;2023-05-09T06:04:38;75.28;;;41.95;;
52554;SDS011;38455;52.710;6.502;2023-05-09T06:07:03;84.75;;;46.60;;
52554;SDS011;38455;52.710;6.502;2023-05-09T06:09:30;69.07;;;40.15;;
52554;SDS011;38455;52.710;6.502;2023-05-09T06:11:55;71.60;;;41.50;;
52554;SDS011;38455;52.710;6.502;2023-05-09T06:14:21;67.00;;;41.55;;
52554;SDS011;38455;52.710;6.502;2023-05-09T06:16:47;75.60;;;40.72;;
52554;SDS011;38455;52.710;6.502;2023-05-09T06:19:12;73.68;;;42.25;;
52554;SDS011;38455;52.710;6.502;2023-05-09T06:21:38;69.45;;;40.38;;
52554;SDS011;38455;52.710;6.502;2023-05-09T06:24:04;68.40;;;40.55;;
52554;SDS011;38455;52.710;6.502;2023-05-09T06:26:30;62.10;;;38.28;;
52554;SDS011;38455;52.710;6.502;2023-05-09T06:28:56;67.05;;;39.90;;
52554;SDS011;38455;52.710;6.502;2023-05-09T06:31:21;67.38;;;40.03;;
52554;SDS011;38455;52.710;6.502;2023-05-09T06:33:47;72.63;;;38.85;;
52554;SDS011;38455;52.710;6.502;2023-05-09T06:36:12;80.93;;;44.13;;
52554;SDS011;38455;52.710;6.502;2023-05-09T06:38:38;75.35;;;40.45;;
52554;SDS011;38455;52.710;6.502;2023-05-09T06:41:04;72.80;;;41.58;;
52554;SDS011;38455;52.710;6.502;2023-05-09T06:43:29;77.10;;;41.10;;
52554;SDS011;38455;52.710;6.502;2023-05-09T06:45:55;74.63;;;42.10;;
52554;SDS011;38455;52.710;6.502;2023-05-09T06:48:21;69.63;;;39.53;;
52554;SDS011;38455;52.710;6.502;2023-05-09T06:50:48;73.05;;;41.20;;
52554;SDS011;38455;52.710;6.502;2023-05-09T06:53:14;71.43;;;39.03;;
52554;SDS011;38455;52.710;6.502;2023-05-09T06:55:40;71.20;;;39.92;;
52554;SDS011;38455;52.710;6.502;2023-05-09T06:58:06;69.35;;;39.55;;
52554;SDS011;38455;52.710;6.502;2023-05-09T07:00:32;69.10;;;40.40;;
52554;SDS011;38455;52.710;6.502;2023-05-09T07:02:58;72.88;;;38.78;;
52554;SDS011;38455;52.710;6.502;2023-05-09T07:05:23;61.70;;;35.67;;
52554;SDS011;38455;52.710;6.502;2023-05-09T07:07:49;62.40;;;35.67;;
52554;SDS011;38455;52.710;6.502;2023-05-09T07:10:15;65.63;;;35.88;;
52554;SDS011;38455;52.710;6.502;2023-05-09T07:12:41;58.25;;;33.40;;
52554;SDS011;38455;52.710;6.502;2023-05-09T07:15:07;61.75;;;35.10;;
52554;SDS011;38455;52.710;6.502;2023-05-09T07:17:33;63.83;;;34.85;;
52554;SDS011;38455;52.710;6.502;2023-05-09T07:19:58;65.80;;;36.72;;
52554;SDS011;38455;52.710;6.502;2023-05-09T07:22:24;61.92;;;35.20;;
52554;SDS011;38455;52.710;6.502;2023-05-09T07:24:50;60.15;;;35.22;;
52554;SDS011;38455;52.710;6.502;2023-05-09T07:27:15;63.40;;;36.20;;
52554;SDS011;38455;52.710;6.502;2023-05-09T07:29:41;67.00;;;37.95;;
52554;SDS011;38455;52.710;6.502;2023-05-09T07:32:07;64.18;;;36.33;;
52554;SDS011;38455;52.710;6.502;2023-05-09T07:34:32;60.42;;;35.92;;
52554;SDS011;38455;52.710;6.502;2023-05-09T07:36:58;63.38;;;37.15;;
52554;SDS011;38455;52.710;6.502;2023-05-09T07:39:23;63.13;;;35.88;;
52554;SDS011;38455;52.710;6.502;2023-05-09T07:41:49;65.47;;;36.20;;
52554;SDS011;38455;52.710;6.502;2023-05-09T07:44:15;71.88;;;38.58;;
52554;SDS011;38455;52.710;6.502;2023-05-09T07:46:40;66.03;;;36.70;;
52554;SDS011;38455;52.710;6.502;2023-05-09T07:49:06;60.45;;;33.58;;
52554;SDS011;38455;52.710;6.502;2023-05-09T07:51:32;63.92;;;35.10;;
52554;SDS011;38455;52.710;6.502;2023-05-09T07:53:58;57.78;;;33.05;;
52554;SDS011;38455;52.710;6.502;2023-05-09T07:56:23;57.42;;;32.33;;
52554;SDS011;38455;52.710;6.502;2023-05-09T07:58:50;62.70;;;35.15;;
52554;SDS011;38455;52.710;6.502;2023-05-09T08:01:16;55.08;;;31.20;;
52554;SDS011;38455;52.710;6.502;2023-05-09T08:03:41;54.88;;;32.60;;
52554;SDS011;38455;52.710;6.502;2023-05-09T08:06:07;52.25;;;31.50;;
52554;SDS011;38455;52.710;6.502;2023-05-09T08:08:33;53.25;;;30.10;;
52554;SDS011;38455;52.710;6.502;2023-05-09T08:10:58;54.05;;;31.30;;
52554;SDS011;38455;52.710;6.502;2023-05-09T08:13:24;50.60;;;29.92;;
52554;SDS011;38455;52.710;6.502;2023-05-09T08:15:50;52.00;;;31.67;;
52554;SDS011;38455;52.710;6.502;2023-05-09T08:18:15;51.15;;;30.77;;
52554;SDS011;38455;52.710;6.502;2023-05-09T08:20:41;51.80;;;30.08;;
52554;SDS011;38455;52.710;6.502;2023-05-09T08:23:07;52.88;;;30.65;;
52554;SDS011;38455;52.710;6.502;2023-05-09T08:25:33;53.40;;;30.73;;
52554;SDS011;38455;52.710;6.502;2023-05-09T08:27:59;59.72;;;31.02;;
52554;SDS011;38455;52.710;6.502;2023-05-09T08:30:25;55.00;;;31.40;;
52554;SDS011;38455;52.710;6.502;2023-05-09T08:32:51;49.85;;;30.30;;
52554;SDS011;38455;52.710;6.502;2023-05-09T08:35:16;48.60;;;29.08;;
52554;SDS011;38455;52.710;6.502;2023-05-09T08:37:42;47.05;;;28.02;;
52554;SDS011;38455;52.710;6.502;2023-05-09T08:40:08;47.03;;;28.17;;
52554;SDS011;38455;52.710;6.502;2023-05-09T08:42:35;42.20;;;26.67;;
52554;SDS011;38455;52.710;6.502;2023-05-09T08:45:06;46.30;;;26.10;;
52554;SDS011;38455;52.710;6.502;2023-05-09T08:47:37;44.03;;;26.50;;
52554;SDS011;38455;52.710;6.502;2023-05-09T08:50:03;41.90;;;25.33;;
52554;SDS011;38455;52.710;6.502;2023-05-09T08:52:33;43.17;;;24.50;;
52554;SDS011;38455;52.710;6.502;2023-05-09T08:54:59;37.80;;;23.52;;
52554;SDS011;38455;52.710;6.502;2023-05-09T08:57:30;37.85;;;22.60;;
52554;SDS011;38455;52.710;6.502;2023-05-09T08:59:59;37.47;;;23.20;;
52554;SDS011;38455;52.710;6.502;2023-05-09T09:02:25;33.03;;;21.83;;
52554;SDS011;38455;52.710;6.502;2023-05-09T09:04:50;37.33;;;22.55;;
52554;SDS011;38455;52.710;6.502;2023-05-09T09:07:17;37.75;;;24.13;;
52554;SDS011;38455;52.710;6.502;2023-05-09T09:09:45;37.47;;;22.42;;
52554;SDS011;38455;52.710;6.502;2023-05-09T09:12:13;33.92;;;21.80;;
52554;SDS011;38455;52.710;6.502;2023-05-09T09:14:41;37.42;;;22.77;;
52554;SDS011;38455;52.710;6.502;2023-05-09T09:17:10;30.58;;;21.20;;
52554;SDS011;38455;52.710;6.502;2023-05-09T09:19:41;33.60;;;22.88;;
52554;SDS011;38455;52.710;6.502;2023-05-09T09:22:11;37.33;;;22.83;;
52554;SDS011;38455;52.710;6.502;2023-05-09T09:24:40;32.63;;;21.08;;
52554;SDS011;38455;52.710;6.502;2023-05-09T09:27:06;34.58;;;22.10;;
52554;SDS011;38455;52.710;6.502;2023-05-09T09:29:32;33.58;;;21.13;;
52554;SDS011;38455;52.710;6.502;2023-05-09T09:32:00;31.75;;;21.60;;
52554;SDS011;38455;52.710;6.502;2023-05-09T09:34:27;35.45;;;22.42;;
52554;SDS011;38455;52.710;6.502;2023-05-09T09:36:53;35.00;;;21.63;;
52554;SDS011;38455;52.710;6.502;2023-05-09T09:39:19;30.90;;;19.77;;
52554;SDS011;38455;52.710;6.502;2023-05-09T09:41:46;31.55;;;20.75;;
52554;SDS011;38455;52.710;6.502;2023-05-09T09:44:15;31.38;;;20.02;;
52554;SDS011;38455;52.710;6.502;2023-05-09T09:46:46;32.88;;;19.80;;
52554;SDS011;38455;52.710;6.502;2023-05-09T09:49:17;29.05;;;19.25;;
52554;SDS011;38455;52.710;6.502;2023-05-09T09:51:44;27.38;;;18.65;;
52554;SDS011;38455;52.710;6.502;2023-05-09T09:54:13;27.50;;;18.58;;
52554;SDS011;38455;52.710;6.502;2023-05-09T09:56:39;30.50;;;18.42;;
52554;SDS011;38455;52.710;6.502;2023-05-09T09:59:10;29.60;;;19.65;;
52554;SDS011;38455;52.710;6.502;2023-05-09T10:04:22;26.42;;;17.05;;
52554;SDS011;38455;52.710;6.502;2023-05-09T10:06:55;24.85;;;17.90;;
52554;SDS011;38455;52.710;6.502;2023-05-09T10:09:25;23.95;;;16.20;;
52554;SDS011;38455;52.710;6.502;2023-05-09T10:11:52;23.92;;;15.43;;
52554;SDS011;38455;52.710;6.502;2023-05-09T10:14:20;23.30;;;16.05;;
52554;SDS011;38455;52.710;6.502;2023-05-09T10:16:50;20.67;;;14.70;;
52554;SDS011;38455;52.710;6.502;2023-05-09T10:19:20;20.25;;;14.65;;
52554;SDS011;38455;52.710;6.502;2023-05-09T10:21:50;21.05;;;15.30;;
52554;SDS011;38455;52.710;6.502;2023-05-09T10:24:28;19.13;;;13.50;;
52554;SDS011;38455;52.710;6.502;2023-05-09T10:27:01;16.60;;;12.27;;
52554;SDS011;38455;52.710;6.502;2023-05-09T10:29:34;16.17;;;11.07;;
52554;SDS011;38455;52.710;6.502;2023-05-09T10:32:04;18.63;;;13.20;;
52554;SDS011;38455;52.710;6.502;2023-05-09T10:34:41;19.80;;;12.70;;
52554;SDS011;38455;52.710;6.502;2023-05-09T10:37:09;18.33;;;12.82;;
52554;SDS011;38455;52.710;6.502;2023-05-09T10:39:35;14.85;;;11.48;;
52554;SDS011;38455;52.710;6.502;2023-05-09T10:42:01;15.10;;;11.45;;
52554;SDS011;38455;52.710;6.502;2023-05-09T10:44:29;18.20;;;11.60;;
52554;SDS011;38455;52.710;6.502;2023-05-09T10:46:55;14.30;;;11.25;;
52554;SDS011;38455;52.710;6.502;2023-05-09T10:49:21;16.23;;;10.93;;
52554;SDS011;38455;52.710;6.502;2023-05-09T10:51:48;16.15;;;10.48;;
52554;SDS011;38455;52.710;6.502;2023-05-09T10:54:24;13.52;;;10.45;;
52554;SDS011;38455;52.710;6.502;2023-05-09T10:56:54;13.82;;;11.00;;
52554;SDS011;38455;52.710;6.502;2023-05-09T10:59:31;13.27;;;8.80;;
52554;SDS011;38455;52.710;6.502;2023-05-09T11:01:57;12.18;;;9.27;;
52554;SDS011;38455;52.710;6.502;2023-05-09T11:04:27;15.88;;;9.95;;
52554;SDS011;38455;52.710;6.502;2023-05-09T11:06:53;13.98;;;9.15;;
52554;SDS011;38455;52.710;6.502;2023-05-09T11:14:32;11.67;;;9.67;;
52554;SDS011;38455;52.710;6.502;2023-05-09T11:22:20;14.18;;;10.18;;
52554;SDS011;38455;52.710;6.502;2023-05-09T11:27:37;15.35;;;10.63;;
52554;SDS011;38455;52.710;6.502;2023-05-09T11:30:10;13.98;;;9.70;;
52554;SDS011;38455;52.710;6.502;2023-05-09T11:32:42;13.40;;;9.18;;
52554;SDS011;38455;52.710;6.502;2023-05-09T11:35:10;11.63;;;8.40;;
52554;SDS011;38455;52.710;6.502;2023-05-09T11:37:51;14.35;;;8.93;;
52554;SDS011;38455;52.710;6.502;2023-05-09T11:40:28;12.93;;;9.73;;
52554;SDS011;38455;52.710;6.502;2023-05-09T11:42:55;15.10;;;8.32;;
52554;SDS011;38455;52.710;6.502;2023-05-09T11:45:22;13.10;;;8.77;;
52554;SDS011;38455;52.710;6.502;2023-05-09T11:47:50;10.73;;;9.00;;
52554;SDS011;38455;52.710;6.502;2023-05-09T11:50:17;13.45;;;8.75;;
52554;SDS011;38455;52.710;6.502;2023-05-09T11:52:44;16.33;;;8.70;;
52554;SDS011;38455;52.710;6.502;2023-05-09T11:55:14;12.02;;;8.98;;
52554;SDS011;38455;52.710;6.502;2023-05-09T11:57:45;15.57;;;8.85;;
52554;SDS011;38455;52.710;6.502;2023-05-09T12:00:22;13.20;;;10.13;;
52554;SDS011;38455;52.710;6.502;2023-05-09T12:02:49;14.85;;;10.68;;
52554;SDS011;38455;52.710;6.502;2023-05-09T12:05:16;15.80;;;10.18;;
52554;SDS011;38455;52.710;6.502;2023-05-09T12:07:43;15.38;;;10.18;;
52554;SDS011;38455;52.710;6.502;2023-05-09T12:10:11;14.63;;;10.73;;
52554;SDS011;38455;52.710;6.502;2023-05-09T12:12:43;14.98;;;10.70;;
52554;SDS011;38455;52.710;6.502;2023-05-09T12:15:11;14.60;;;11.40;;
52554;SDS011;38455;52.710;6.502;2023-05-09T12:17:37;12.25;;;10.13;;
52554;SDS011;38455;52.710;6.502;2023-05-09T12:20:04;16.25;;;11.13;;
52554;SDS011;38455;52.710;6.502;2023-05-09T12:22:31;15.75;;;11.98;;
52554;SDS011;38455;52.710;6.502;2023-05-09T12:24:59;16.90;;;12.10;;
52554;SDS011;38455;52.710;6.502;2023-05-09T12:27:30;17.08;;;12.73;;
52554;SDS011;38455;52.710;6.502;2023-05-09T12:29:57;20.73;;;12.25;;
52554;SDS011;38455;52.710;6.502;2023-05-09T12:32:24;16.52;;;12.90;;
52554;SDS011;38455;52.710;6.502;2023-05-09T12:34:55;17.63;;;13.68;;
52554;SDS011;38455;52.710;6.502;2023-05-09T12:37:22;17.50;;;13.43;;
52554;SDS011;38455;52.710;6.502;2023-05-09T12:40:00;19.80;;;14.40;;
52554;SDS011;38455;52.710;6.502;2023-05-09T12:42:31;20.23;;;15.05;;
52554;SDS011;38455;52.710;6.502;2023-05-09T12:44:57;19.15;;;14.93;;
52554;SDS011;38455;52.710;6.502;2023-05-09T12:47:25;19.35;;;15.82;;
52554;SDS011;38455;52.710;6.502;2023-05-09T12:49:56;21.77;;;15.52;;
52554;SDS011;38455;52.710;6.502;2023-05-09T12:52:22;19.17;;;14.60;;
52554;SDS011;38455;52.710;6.502;2023-05-09T12:54:48;20.73;;;15.98;;
52554;SDS011;38455;52.710;6.502;2023-05-09T12:57:20;21.23;;;15.60;;
52554;SDS011;38455;52.710;6.502;2023-05-09T12:59:47;20.00;;;16.08;;
52554;SDS011;38455;52.710;6.502;2023-05-09T13:02:13;20.17;;;15.38;;
52554;SDS011;38455;52.710;6.502;2023-05-09T13:04:38;19.90;;;16.38;;
52554;SDS011;38455;52.710;6.502;2023-05-09T13:07:07;20.25;;;15.55;;
52554;SDS011;38455;52.710;6.502;2023-05-09T13:09:34;18.50;;;15.38;;
52554;SDS011;38455;52.710;6.502;2023-05-09T13:12:01;18.85;;;15.45;;
52554;SDS011;38455;52.710;6.502;2023-05-09T13:14:32;21.92;;;16.50;;
52554;SDS011;38455;52.710;6.502;2023-05-09T13:16:58;22.38;;;15.63;;
52554;SDS011;38455;52.710;6.502;2023-05-09T13:19:23;21.27;;;16.23;;
52554;SDS011;38455;52.710;6.502;2023-05-09T13:21:49;19.98;;;15.50;;
52554;SDS011;38455;52.710;6.502;2023-05-09T13:24:16;22.45;;;15.70;;
52554;SDS011;38455;52.710;6.502;2023-05-09T13:26:41;19.25;;;16.50;;
52554;SDS011;38455;52.710;6.502;2023-05-09T13:29:07;18.35;;;15.63;;
52554;SDS011;38455;52.710;6.502;2023-05-09T13:31:33;20.10;;;16.52;;
52554;SDS011;38455;52.710;6.502;2023-05-09T13:33:58;17.65;;;15.52;;
52554;SDS011;38455;52.710;6.502;2023-05-09T13:36:24;20.33;;;15.30;;
52554;SDS011;38455;52.710;6.502;2023-05-09T13:38:50;17.13;;;14.73;;
52554;SDS011;38455;52.710;6.502;2023-05-09T13:41:15;16.45;;;14.60;;
52554;SDS011;38455;52.710;6.502;2023-05-09T13:43:44;18.98;;;15.00;;
52554;SDS011;38455;52.710;6.502;2023-05-09T13:46:10;20.30;;;15.27;;
52554;SDS011;38455;52.710;6.502;2023-05-09T13:48:36;21.80;;;16.27;;
52554;SDS011;38455;52.710;6.502;2023-05-09T13:51:02;16.08;;;14.38;;
52554;SDS011;38455;52.710;6.502;2023-05-09T13:53:28;16.92;;;13.40;;
52554;SDS011;38455;52.710;6.502;2023-05-09T13:55:53;15.52;;;12.50;;
52554;SDS011;38455;52.710;6.502;2023-05-09T13:58:19;14.48;;;11.57;;
52554;SDS011;38455;52.710;6.502;2023-05-09T14:00:45;12.75;;;10.75;;
52554;SDS011;38455;52.710;6.502;2023-05-09T14:03:11;13.10;;;10.88;;
52554;SDS011;38455;52.710;6.502;2023-05-09T14:05:36;14.50;;;10.85;;
52554;SDS011;38455;52.710;6.502;2023-05-09T14:08:02;11.48;;;9.77;;
52554;SDS011;38455;52.710;6.502;2023-05-09T14:10:28;14.65;;;11.30;;
52554;SDS011;38455;52.710;6.502;2023-05-09T14:12:53;13.30;;;10.20;;
52554;SDS011;38455;52.710;6.502;2023-05-09T14:15:19;10.63;;;9.50;;
52554;SDS011;38455;52.710;6.502;2023-05-09T14:17:44;11.85;;;9.63;;
52554;SDS011;38455;52.710;6.502;2023-05-09T14:20:11;10.57;;;8.88;;
52554;SDS011;38455;52.710;6.502;2023-05-09T14:22:37;9.88;;;8.70;;
52554;SDS011;38455;52.710;6.502;2023-05-09T14:25:02;9.55;;;8.55;;
52554;SDS011;38455;52.710;6.502;2023-05-09T14:27:28;8.60;;;7.70;;
52554;SDS011;38455;52.710;6.502;2023-05-09T14:29:54;8.25;;;7.38;;
52554;SDS011;38455;52.710;6.502;2023-05-09T14:32:20;10.20;;;8.23;;
52554;SDS011;38455;52.710;6.502;2023-05-09T14:34:45;11.77;;;8.50;;
52554;SDS011;38455;52.710;6.502;2023-05-09T14:37:13;10.50;;;8.07;;
52554;SDS011;38455;52.710;6.502;2023-05-09T14:39:39;10.43;;;8.38;;
52554;SDS011;38455;52.710;6.502;2023-05-09T14:42:13;9.20;;;7.20;;
52554;SDS011;38455;52.710;6.502;2023-05-09T14:44:40;9.23;;;7.78;;
52554;SDS011;38455;52.710;6.502;2023-05-09T14:47:07;11.45;;;8.23;;
52554;SDS011;38455;52.710;6.502;2023-05-09T14:49:33;10.43;;;7.82;;